ROMMA est une association bénévole à but non lucratif. Votre soutien est indispensable : ADHERER à ROMMA ou FAIRE un DON

Challes-les-Eaux - (73, Savoie)

Trouée des Marches (325 m)   Longitude: 05° 58' E   Latitude: 45° 32' N Station romma n°148
 

Détail journalier du     <<     >>

Température Precipitation Humidité Pression Vent Dir Rafale Dir. rafale
Heure (°C) (mm) (%) (hPa) (km/h) (km/h)
01:00 12.207010198ONO26NO
02:00 11.706910197ONO23ONO
03:00 10.207610203NNO16NO
04:00 9.407710191NNO6NNE
05:00 9.007810192ENE8E
06:00 7.808310191N6ONO
07:00 7.108510191N5N
08:00 6.1089101903N
09:00 6.3090102005N
10:00 10.407610202NNE11ENE
11:00 12.107110204N18ONO
12:00 13.306510195ONO19ONO
13:00 14.806210197NO23O
14:00 15.806010186NO23ONO
15:00 16.705410186ONO19O
16:00 17.405010175ONO18NO
17:00 17.204910177ONO23ONO
18:00 16.604910176ONO21ONO
19:00 14.706110185O18NO
20:00 13.806710183N10N
21:00 13.207110182N8NNE
22:00 11.607510181N5N
23:00 10.3080101803N
minuit 9.1081101805N

Graphique du 03-10-2019

 

Serveur OMMA